sensor_id;sensor_type;location;lat;lon;timestamp;P1;durP1;ratioP1;P2;durP2;ratioP2
68353;SDS011;55274;43.060;25.618;2023-02-13T00:00:20;57.97;;;23.13;;
68353;SDS011;55274;43.060;25.618;2023-02-13T00:02:47;59.90;;;23.88;;
68353;SDS011;55274;43.060;25.618;2023-02-13T00:05:13;57.83;;;23.85;;
68353;SDS011;55274;43.060;25.618;2023-02-13T00:07:39;67.57;;;26.00;;
68353;SDS011;55274;43.060;25.618;2023-02-13T00:10:05;72.00;;;25.65;;
68353;SDS011;55274;43.060;25.618;2023-02-13T00:12:31;60.78;;;24.05;;
68353;SDS011;55274;43.060;25.618;2023-02-13T00:14:57;59.20;;;23.27;;
68353;SDS011;55274;43.060;25.618;2023-02-13T00:17:24;62.45;;;25.05;;
68353;SDS011;55274;43.060;25.618;2023-02-13T00:19:50;57.08;;;22.77;;
68353;SDS011;55274;43.060;25.618;2023-02-13T00:22:16;57.78;;;22.88;;
68353;SDS011;55274;43.060;25.618;2023-02-13T00:24:42;60.97;;;23.33;;
68353;SDS011;55274;43.060;25.618;2023-02-13T00:27:08;59.88;;;22.45;;
68353;SDS011;55274;43.060;25.618;2023-02-13T00:29:33;53.83;;;21.58;;
68353;SDS011;55274;43.060;25.618;2023-02-13T00:31:59;62.80;;;22.02;;
68353;SDS011;55274;43.060;25.618;2023-02-13T00:34:25;53.08;;;21.75;;
68353;SDS011;55274;43.060;25.618;2023-02-13T00:36:51;56.47;;;23.42;;
68353;SDS011;55274;43.060;25.618;2023-02-13T00:39:17;54.13;;;21.77;;
68353;SDS011;55274;43.060;25.618;2023-02-13T00:41:43;55.72;;;22.63;;
68353;SDS011;55274;43.060;25.618;2023-02-13T00:44:09;55.33;;;22.17;;
68353;SDS011;55274;43.060;25.618;2023-02-13T00:46:35;55.25;;;21.65;;
68353;SDS011;55274;43.060;25.618;2023-02-13T00:49:02;56.38;;;22.30;;
68353;SDS011;55274;43.060;25.618;2023-02-13T00:51:28;58.92;;;22.52;;
68353;SDS011;55274;43.060;25.618;2023-02-13T00:53:54;53.15;;;21.17;;
68353;SDS011;55274;43.060;25.618;2023-02-13T00:56:20;54.88;;;21.02;;
68353;SDS011;55274;43.060;25.618;2023-02-13T00:58:46;50.22;;;20.70;;
68353;SDS011;55274;43.060;25.618;2023-02-13T01:01:11;49.53;;;18.90;;
68353;SDS011;55274;43.060;25.618;2023-02-13T01:03:37;53.17;;;21.45;;
68353;SDS011;55274;43.060;25.618;2023-02-13T01:06:04;62.47;;;22.25;;
68353;SDS011;55274;43.060;25.618;2023-02-13T01:08:30;54.95;;;20.15;;
68353;SDS011;55274;43.060;25.618;2023-02-13T01:10:55;59.90;;;21.15;;
68353;SDS011;55274;43.060;25.618;2023-02-13T01:13:21;55.78;;;21.20;;
68353;SDS011;55274;43.060;25.618;2023-02-13T01:15:47;56.45;;;21.98;;
68353;SDS011;55274;43.060;25.618;2023-02-13T01:18:14;54.83;;;22.13;;
68353;SDS011;55274;43.060;25.618;2023-02-13T01:20:42;62.45;;;23.85;;
68353;SDS011;55274;43.060;25.618;2023-02-13T01:23:08;56.75;;;21.55;;
68353;SDS011;55274;43.060;25.618;2023-02-13T01:25:34;56.40;;;23.02;;
68353;SDS011;55274;43.060;25.618;2023-02-13T01:28:03;52.97;;;21.70;;
68353;SDS011;55274;43.060;25.618;2023-02-13T01:30:29;56.00;;;23.25;;
68353;SDS011;55274;43.060;25.618;2023-02-13T01:32:54;58.55;;;22.85;;
68353;SDS011;55274;43.060;25.618;2023-02-13T01:35:20;58.38;;;22.10;;
68353;SDS011;55274;43.060;25.618;2023-02-13T01:37:46;59.45;;;22.88;;
68353;SDS011;55274;43.060;25.618;2023-02-13T01:40:12;55.00;;;22.38;;
68353;SDS011;55274;43.060;25.618;2023-02-13T01:42:39;57.25;;;22.65;;
68353;SDS011;55274;43.060;25.618;2023-02-13T01:45:12;59.03;;;22.65;;
68353;SDS011;55274;43.060;25.618;2023-02-13T01:47:46;58.10;;;21.95;;
68353;SDS011;55274;43.060;25.618;2023-02-13T01:55:28;56.08;;;22.25;;
68353;SDS011;55274;43.060;25.618;2023-02-13T01:58:06;64.25;;;22.90;;
68353;SDS011;55274;43.060;25.618;2023-02-13T02:00:34;57.90;;;21.25;;
68353;SDS011;55274;43.060;25.618;2023-02-13T02:03:12;55.28;;;21.25;;
68353;SDS011;55274;43.060;25.618;2023-02-13T02:05:41;54.97;;;20.42;;
68353;SDS011;55274;43.060;25.618;2023-02-13T02:08:08;51.65;;;21.52;;
68353;SDS011;55274;43.060;25.618;2023-02-13T02:10:36;54.83;;;21.63;;
68353;SDS011;55274;43.060;25.618;2023-02-13T02:13:04;53.63;;;22.08;;
68353;SDS011;55274;43.060;25.618;2023-02-13T02:15:44;54.90;;;20.60;;
68353;SDS011;55274;43.060;25.618;2023-02-13T02:18:15;54.08;;;20.48;;
68353;SDS011;55274;43.060;25.618;2023-02-13T02:28:50;43.30;;;17.70;;
68353;SDS011;55274;43.060;25.618;2023-02-13T02:52:56;46.75;;;19.23;;
68353;SDS011;55274;43.060;25.618;2023-02-13T02:55:49;49.90;;;20.13;;
68353;SDS011;55274;43.060;25.618;2023-02-13T02:58:24;48.75;;;18.58;;
68353;SDS011;55274;43.060;25.618;2023-02-13T03:01:17;46.42;;;20.02;;
68353;SDS011;55274;43.060;25.618;2023-02-13T03:04:04;46.38;;;20.15;;
68353;SDS011;55274;43.060;25.618;2023-02-13T03:06:50;57.30;;;19.77;;
68353;SDS011;55274;43.060;25.618;2023-02-13T03:09:21;50.25;;;19.88;;
68353;SDS011;55274;43.060;25.618;2023-02-13T03:12:09;53.90;;;20.50;;
68353;SDS011;55274;43.060;25.618;2023-02-13T03:14:56;50.70;;;17.60;;
68353;SDS011;55274;43.060;25.618;2023-02-13T03:17:22;47.05;;;20.77;;
68353;SDS011;55274;43.060;25.618;2023-02-13T03:20:11;51.70;;;19.35;;
68353;SDS011;55274;43.060;25.618;2023-02-13T03:33:53;52.67;;;19.33;;
68353;SDS011;55274;43.060;25.618;2023-02-13T03:36:30;52.28;;;20.23;;
68353;SDS011;55274;43.060;25.618;2023-02-13T03:39:39;56.50;;;18.30;;
68353;SDS011;55274;43.060;25.618;2023-02-13T03:42:26;50.13;;;19.20;;
68353;SDS011;55274;43.060;25.618;2023-02-13T03:45:01;58.67;;;19.83;;
68353;SDS011;55274;43.060;25.618;2023-02-13T03:47:54;49.40;;;18.90;;
68353;SDS011;55274;43.060;25.618;2023-02-13T03:50:23;55.50;;;22.05;;
68353;SDS011;55274;43.060;25.618;2023-02-13T03:52:58;79.00;;;28.17;;
68353;SDS011;55274;43.060;25.618;2023-02-13T03:55:36;58.05;;;21.17;;
68353;SDS011;55274;43.060;25.618;2023-02-13T03:58:27;53.95;;;20.55;;
68353;SDS011;55274;43.060;25.618;2023-02-13T04:01:19;48.35;;;18.73;;
68353;SDS011;55274;43.060;25.618;2023-02-13T04:03:49;48.45;;;18.45;;
68353;SDS011;55274;43.060;25.618;2023-02-13T04:06:22;53.45;;;19.58;;
68353;SDS011;55274;43.060;25.618;2023-02-13T04:08:54;50.30;;;18.98;;
68353;SDS011;55274;43.060;25.618;2023-02-13T04:14:17;50.78;;;18.17;;
68353;SDS011;55274;43.060;25.618;2023-02-13T04:16:53;44.17;;;16.67;;
68353;SDS011;55274;43.060;25.618;2023-02-13T04:19:24;48.72;;;18.60;;
68353;SDS011;55274;43.060;25.618;2023-02-13T04:21:54;51.67;;;17.23;;
68353;SDS011;55274;43.060;25.618;2023-02-13T04:24:25;50.13;;;18.55;;
68353;SDS011;55274;43.060;25.618;2023-02-13T04:26:51;56.67;;;20.38;;
68353;SDS011;55274;43.060;25.618;2023-02-13T04:29:18;71.90;;;21.52;;
68353;SDS011;55274;43.060;25.618;2023-02-13T04:31:48;54.25;;;19.50;;
68353;SDS011;55274;43.060;25.618;2023-02-13T04:34:14;64.78;;;20.48;;
68353;SDS011;55274;43.060;25.618;2023-02-13T04:36:40;49.88;;;20.30;;
68353;SDS011;55274;43.060;25.618;2023-02-13T04:39:06;45.17;;;17.38;;
68353;SDS011;55274;43.060;25.618;2023-02-13T04:41:32;45.42;;;19.27;;
68353;SDS011;55274;43.060;25.618;2023-02-13T04:43:57;47.78;;;18.27;;
68353;SDS011;55274;43.060;25.618;2023-02-13T04:46:23;44.92;;;17.67;;
68353;SDS011;55274;43.060;25.618;2023-02-13T04:48:49;49.03;;;17.98;;
68353;SDS011;55274;43.060;25.618;2023-02-13T04:51:15;45.47;;;17.42;;
68353;SDS011;55274;43.060;25.618;2023-02-13T04:53:40;54.45;;;18.42;;
68353;SDS011;55274;43.060;25.618;2023-02-13T04:56:06;41.22;;;14.77;;
68353;SDS011;55274;43.060;25.618;2023-02-13T04:58:32;58.45;;;15.30;;
68353;SDS011;55274;43.060;25.618;2023-02-13T05:00:58;40.30;;;14.43;;
68353;SDS011;55274;43.060;25.618;2023-02-13T05:03:23;42.22;;;16.77;;
68353;SDS011;55274;43.060;25.618;2023-02-13T05:05:49;39.45;;;15.35;;
68353;SDS011;55274;43.060;25.618;2023-02-13T05:08:15;58.03;;;16.30;;
68353;SDS011;55274;43.060;25.618;2023-02-13T05:10:41;55.53;;;16.17;;
68353;SDS011;55274;43.060;25.618;2023-02-13T05:13:07;40.20;;;15.90;;
68353;SDS011;55274;43.060;25.618;2023-02-13T05:15:32;36.17;;;15.93;;
68353;SDS011;55274;43.060;25.618;2023-02-13T05:17:58;36.25;;;16.00;;
68353;SDS011;55274;43.060;25.618;2023-02-13T05:20:24;42.08;;;14.88;;
68353;SDS011;55274;43.060;25.618;2023-02-13T05:22:50;39.67;;;15.23;;
68353;SDS011;55274;43.060;25.618;2023-02-13T05:25:36;49.03;;;16.70;;
68353;SDS011;55274;43.060;25.618;2023-02-13T05:28:04;42.80;;;14.73;;
68353;SDS011;55274;43.060;25.618;2023-02-13T05:30:51;56.70;;;15.32;;
68353;SDS011;55274;43.060;25.618;2023-02-13T05:33:17;37.30;;;13.60;;
68353;SDS011;55274;43.060;25.618;2023-02-13T05:35:42;90.15;;;16.27;;
68353;SDS011;55274;43.060;25.618;2023-02-13T05:38:08;61.10;;;16.25;;
68353;SDS011;55274;43.060;25.618;2023-02-13T05:40:34;35.80;;;13.93;;
68353;SDS011;55274;43.060;25.618;2023-02-13T05:42:59;37.55;;;14.18;;
68353;SDS011;55274;43.060;25.618;2023-02-13T05:45:25;40.25;;;13.98;;
68353;SDS011;55274;43.060;25.618;2023-02-13T05:47:51;42.70;;;14.63;;
68353;SDS011;55274;43.060;25.618;2023-02-13T05:50:17;45.75;;;15.88;;
68353;SDS011;55274;43.060;25.618;2023-02-13T05:52:42;41.00;;;15.30;;
68353;SDS011;55274;43.060;25.618;2023-02-13T05:55:08;49.25;;;17.90;;
68353;SDS011;55274;43.060;25.618;2023-02-13T05:57:34;45.42;;;15.50;;
68353;SDS011;55274;43.060;25.618;2023-02-13T06:00:00;41.55;;;15.07;;
68353;SDS011;55274;43.060;25.618;2023-02-13T06:02:26;49.90;;;15.23;;
68353;SDS011;55274;43.060;25.618;2023-02-13T06:04:51;40.97;;;14.20;;
68353;SDS011;55274;43.060;25.618;2023-02-13T06:07:17;47.33;;;17.08;;
68353;SDS011;55274;43.060;25.618;2023-02-13T06:09:43;49.53;;;17.88;;
68353;SDS011;55274;43.060;25.618;2023-02-13T06:12:09;46.90;;;18.15;;
68353;SDS011;55274;43.060;25.618;2023-02-13T06:14:34;48.33;;;17.55;;
68353;SDS011;55274;43.060;25.618;2023-02-13T06:17:00;54.30;;;17.63;;
68353;SDS011;55274;43.060;25.618;2023-02-13T06:19:26;49.20;;;19.38;;
68353;SDS011;55274;43.060;25.618;2023-02-13T06:21:51;69.18;;;19.88;;
68353;SDS011;55274;43.060;25.618;2023-02-13T06:24:17;52.33;;;20.52;;
68353;SDS011;55274;43.060;25.618;2023-02-13T06:26:43;68.90;;;23.25;;
68353;SDS011;55274;43.060;25.618;2023-02-13T06:29:09;55.10;;;21.65;;
68353;SDS011;55274;43.060;25.618;2023-02-13T06:31:35;53.22;;;19.15;;
68353;SDS011;55274;43.060;25.618;2023-02-13T06:34:01;56.63;;;19.58;;
68353;SDS011;55274;43.060;25.618;2023-02-13T06:36:26;47.90;;;19.73;;
68353;SDS011;55274;43.060;25.618;2023-02-13T06:38:52;53.67;;;19.70;;
68353;SDS011;55274;43.060;25.618;2023-02-13T06:41:18;47.83;;;17.77;;
68353;SDS011;55274;43.060;25.618;2023-02-13T06:43:44;51.20;;;19.85;;
68353;SDS011;55274;43.060;25.618;2023-02-13T06:46:09;46.22;;;19.25;;
68353;SDS011;55274;43.060;25.618;2023-02-13T06:48:35;72.60;;;27.80;;
68353;SDS011;55274;43.060;25.618;2023-02-13T06:51:01;41.45;;;17.90;;
68353;SDS011;55274;43.060;25.618;2023-02-13T06:53:27;52.45;;;18.27;;
68353;SDS011;55274;43.060;25.618;2023-02-13T06:55:53;46.15;;;16.73;;
68353;SDS011;55274;43.060;25.618;2023-02-13T06:58:20;38.97;;;16.75;;
68353;SDS011;55274;43.060;25.618;2023-02-13T07:00:47;46.03;;;17.52;;
68353;SDS011;55274;43.060;25.618;2023-02-13T07:03:14;52.15;;;20.65;;
68353;SDS011;55274;43.060;25.618;2023-02-13T07:05:43;69.00;;;24.80;;
68353;SDS011;55274;43.060;25.618;2023-02-13T07:10:41;53.95;;;20.75;;
68353;SDS011;55274;43.060;25.618;2023-02-13T07:13:07;58.92;;;23.52;;
68353;SDS011;55274;43.060;25.618;2023-02-13T07:15:33;57.22;;;21.65;;
68353;SDS011;55274;43.060;25.618;2023-02-13T07:18:00;65.65;;;22.27;;
68353;SDS011;55274;43.060;25.618;2023-02-13T07:20:26;59.53;;;23.65;;
68353;SDS011;55274;43.060;25.618;2023-02-13T07:22:52;52.97;;;21.55;;
68353;SDS011;55274;43.060;25.618;2023-02-13T07:25:21;52.80;;;20.02;;
68353;SDS011;55274;43.060;25.618;2023-02-13T07:27:47;39.22;;;17.42;;
68353;SDS011;55274;43.060;25.618;2023-02-13T07:30:13;39.60;;;17.85;;
68353;SDS011;55274;43.060;25.618;2023-02-13T07:32:39;41.00;;;17.73;;
68353;SDS011;55274;43.060;25.618;2023-02-13T07:35:05;56.67;;;22.20;;
68353;SDS011;55274;43.060;25.618;2023-02-13T07:37:30;46.83;;;19.85;;
68353;SDS011;55274;43.060;25.618;2023-02-13T07:39:56;52.13;;;22.88;;
68353;SDS011;55274;43.060;25.618;2023-02-13T07:42:22;61.28;;;24.48;;
68353;SDS011;55274;43.060;25.618;2023-02-13T07:44:48;71.75;;;28.77;;
68353;SDS011;55274;43.060;25.618;2023-02-13T07:47:14;65.78;;;26.80;;
68353;SDS011;55274;43.060;25.618;2023-02-13T07:49:40;61.88;;;25.02;;
68353;SDS011;55274;43.060;25.618;2023-02-13T07:52:05;64.90;;;25.65;;
68353;SDS011;55274;43.060;25.618;2023-02-13T07:54:31;57.72;;;24.73;;
68353;SDS011;55274;43.060;25.618;2023-02-13T07:57:05;55.20;;;23.30;;
68353;SDS011;55274;43.060;25.618;2023-02-13T07:59:31;57.72;;;24.40;;
68353;SDS011;55274;43.060;25.618;2023-02-13T08:01:57;70.65;;;29.02;;
68353;SDS011;55274;43.060;25.618;2023-02-13T08:04:22;63.90;;;25.85;;
68353;SDS011;55274;43.060;25.618;2023-02-13T08:06:48;59.47;;;25.30;;
68353;SDS011;55274;43.060;25.618;2023-02-13T08:09:18;58.60;;;23.42;;
68353;SDS011;55274;43.060;25.618;2023-02-13T08:12:04;61.67;;;24.67;;
68353;SDS011;55274;43.060;25.618;2023-02-13T08:14:31;56.72;;;23.80;;
68353;SDS011;55274;43.060;25.618;2023-02-13T08:16:58;55.92;;;23.88;;
68353;SDS011;55274;43.060;25.618;2023-02-13T08:19:25;48.75;;;20.35;;
68353;SDS011;55274;43.060;25.618;2023-02-13T08:21:51;54.58;;;21.15;;
68353;SDS011;55274;43.060;25.618;2023-02-13T08:24:16;46.45;;;20.25;;
68353;SDS011;55274;43.060;25.618;2023-02-13T08:26:42;37.60;;;16.55;;
68353;SDS011;55274;43.060;25.618;2023-02-13T08:29:08;42.20;;;16.65;;
68353;SDS011;55274;43.060;25.618;2023-02-13T08:31:35;36.58;;;16.05;;
68353;SDS011;55274;43.060;25.618;2023-02-13T08:34:01;39.70;;;16.90;;
68353;SDS011;55274;43.060;25.618;2023-02-13T08:36:27;52.65;;;16.67;;
68353;SDS011;55274;43.060;25.618;2023-02-13T08:38:53;74.80;;;30.50;;
68353;SDS011;55274;43.060;25.618;2023-02-13T08:41:19;65.38;;;24.00;;
68353;SDS011;55274;43.060;25.618;2023-02-13T08:43:46;45.97;;;17.85;;
68353;SDS011;55274;43.060;25.618;2023-02-13T08:46:13;43.00;;;18.75;;
68353;SDS011;55274;43.060;25.618;2023-02-13T08:48:39;39.80;;;17.15;;
68353;SDS011;55274;43.060;25.618;2023-02-13T08:51:06;58.15;;;24.42;;
68353;SDS011;55274;43.060;25.618;2023-02-13T08:53:33;57.78;;;19.88;;
68353;SDS011;55274;43.060;25.618;2023-02-13T08:56:00;59.13;;;25.60;;
68353;SDS011;55274;43.060;25.618;2023-02-13T08:58:26;72.40;;;29.13;;
68353;SDS011;55274;43.060;25.618;2023-02-13T09:00:52;52.72;;;21.58;;
68353;SDS011;55274;43.060;25.618;2023-02-13T09:03:18;46.83;;;21.33;;
68353;SDS011;55274;43.060;25.618;2023-02-13T09:05:44;43.47;;;19.08;;
68353;SDS011;55274;43.060;25.618;2023-02-13T09:08:11;41.13;;;16.83;;
68353;SDS011;55274;43.060;25.618;2023-02-13T09:10:38;41.05;;;15.07;;
68353;SDS011;55274;43.060;25.618;2023-02-13T09:13:05;49.47;;;16.02;;
68353;SDS011;55274;43.060;25.618;2023-02-13T09:15:31;36.58;;;15.27;;
68353;SDS011;55274;43.060;25.618;2023-02-13T09:17:57;43.08;;;18.48;;
68353;SDS011;55274;43.060;25.618;2023-02-13T09:20:24;54.63;;;22.98;;
68353;SDS011;55274;43.060;25.618;2023-02-13T09:22:50;48.55;;;20.95;;
68353;SDS011;55274;43.060;25.618;2023-02-13T09:25:16;49.92;;;18.92;;
68353;SDS011;55274;43.060;25.618;2023-02-13T09:27:44;37.22;;;15.18;;
68353;SDS011;55274;43.060;25.618;2023-02-13T09:30:10;42.38;;;13.85;;
68353;SDS011;55274;43.060;25.618;2023-02-13T09:32:37;43.97;;;15.15;;
68353;SDS011;55274;43.060;25.618;2023-02-13T09:35:06;47.15;;;15.85;;
68353;SDS011;55274;43.060;25.618;2023-02-13T09:37:32;42.90;;;16.90;;
68353;SDS011;55274;43.060;25.618;2023-02-13T09:39:57;47.25;;;20.35;;
68353;SDS011;55274;43.060;25.618;2023-02-13T09:42:24;52.08;;;20.60;;
68353;SDS011;55274;43.060;25.618;2023-02-13T09:44:59;56.35;;;18.98;;
68353;SDS011;55274;43.060;25.618;2023-02-13T09:47:36;51.58;;;18.17;;
68353;SDS011;55274;43.060;25.618;2023-02-13T09:50:06;32.67;;;15.48;;
68353;SDS011;55274;43.060;25.618;2023-02-13T09:52:46;31.35;;;14.77;;
68353;SDS011;55274;43.060;25.618;2023-02-13T09:58:15;31.98;;;13.15;;
68353;SDS011;55274;43.060;25.618;2023-02-13T10:00:51;28.83;;;13.27;;
68353;SDS011;55274;43.060;25.618;2023-02-13T10:03:20;26.45;;;12.57;;
68353;SDS011;55274;43.060;25.618;2023-02-13T10:06:11;30.23;;;12.07;;
68353;SDS011;55274;43.060;25.618;2023-02-13T10:08:57;24.35;;;11.45;;
68353;SDS011;55274;43.060;25.618;2023-02-13T10:11:39;30.33;;;12.63;;
68353;SDS011;55274;43.060;25.618;2023-02-13T10:16:54;26.30;;;12.18;;
68353;SDS011;55274;43.060;25.618;2023-02-13T10:22:00;26.23;;;11.93;;
68353;SDS011;55274;43.060;25.618;2023-02-13T10:27:03;28.95;;;12.77;;
68353;SDS011;55274;43.060;25.618;2023-02-13T10:29:41;32.20;;;14.68;;
68353;SDS011;55274;43.060;25.618;2023-02-13T10:35:35;34.83;;;14.15;;
68353;SDS011;55274;43.060;25.618;2023-02-13T10:38:03;38.45;;;13.77;;
68353;SDS011;55274;43.060;25.618;2023-02-13T10:41:02;28.65;;;11.32;;
68353;SDS011;55274;43.060;25.618;2023-02-13T10:43:47;27.02;;;11.73;;
68353;SDS011;55274;43.060;25.618;2023-02-13T10:51:50;28.88;;;12.68;;
68353;SDS011;55274;43.060;25.618;2023-02-13T10:54:21;30.35;;;12.93;;
68353;SDS011;55274;43.060;25.618;2023-02-13T11:02:40;62.13;;;17.65;;
68353;SDS011;55274;43.060;25.618;2023-02-13T11:05:39;39.90;;;14.38;;
68353;SDS011;55274;43.060;25.618;2023-02-13T11:10:27;33.88;;;14.38;;
68353;SDS011;55274;43.060;25.618;2023-02-13T11:12:53;31.52;;;14.40;;
68353;SDS011;55274;43.060;25.618;2023-02-13T11:17:49;39.47;;;16.27;;
68353;SDS011;55274;43.060;25.618;2023-02-13T11:20:25;79.22;;;19.98;;
68353;SDS011;55274;43.060;25.618;2023-02-13T11:22:52;31.23;;;14.38;;
68353;SDS011;55274;43.060;25.618;2023-02-13T11:25:34;40.83;;;16.42;;
68353;SDS011;55274;43.060;25.618;2023-02-13T11:28:06;35.10;;;15.90;;
68353;SDS011;55274;43.060;25.618;2023-02-13T11:30:40;29.85;;;14.63;;
68353;SDS011;55274;43.060;25.618;2023-02-13T11:33:17;32.63;;;15.07;;
68353;SDS011;55274;43.060;25.618;2023-02-13T11:35:50;40.05;;;14.95;;
68353;SDS011;55274;43.060;25.618;2023-02-13T11:38:40;40.58;;;16.02;;
68353;SDS011;55274;43.060;25.618;2023-02-13T11:41:07;45.45;;;17.27;;
68353;SDS011;55274;43.060;25.618;2023-02-13T11:43:48;34.38;;;15.68;;
68353;SDS011;55274;43.060;25.618;2023-02-13T11:46:24;37.67;;;14.60;;
68353;SDS011;55274;43.060;25.618;2023-02-13T11:49:14;32.15;;;15.55;;
68353;SDS011;55274;43.060;25.618;2023-02-13T11:51:46;51.45;;;20.27;;
68353;SDS011;55274;43.060;25.618;2023-02-13T11:57:02;36.20;;;14.95;;
68353;SDS011;55274;43.060;25.618;2023-02-13T11:59:32;32.22;;;14.27;;
68353;SDS011;55274;43.060;25.618;2023-02-13T12:02:18;184.20;;;25.00;;
68353;SDS011;55274;43.060;25.618;2023-02-13T12:04:50;33.72;;;16.15;;
68353;SDS011;55274;43.060;25.618;2023-02-13T12:07:28;33.95;;;15.13;;
68353;SDS011;55274;43.060;25.618;2023-02-13T12:10:30;34.95;;;14.02;;
68353;SDS011;55274;43.060;25.618;2023-02-13T12:12:53;35.42;;;13.90;;
68353;SDS011;55274;43.060;25.618;2023-02-13T12:15:24;28.30;;;13.23;;
68353;SDS011;55274;43.060;25.618;2023-02-13T12:20:52;32.97;;;17.73;;
68353;SDS011;55274;43.060;25.618;2023-02-13T12:26:32;31.58;;;13.82;;
68353;SDS011;55274;43.060;25.618;2023-02-13T12:38:01;34.42;;;14.77;;
68353;SDS011;55274;43.060;25.618;2023-02-13T12:43:30;31.40;;;14.77;;
68353;SDS011;55274;43.060;25.618;2023-02-13T12:46:10;32.95;;;15.10;;
68353;SDS011;55274;43.060;25.618;2023-02-13T12:59:32;36.50;;;14.95;;
68353;SDS011;55274;43.060;25.618;2023-02-13T13:02:24;35.03;;;14.60;;
68353;SDS011;55274;43.060;25.618;2023-02-13T13:08:11;35.47;;;15.68;;
68353;SDS011;55274;43.060;25.618;2023-02-13T13:13:55;31.20;;;13.50;;
68353;SDS011;55274;43.060;25.618;2023-02-13T13:21:50;34.78;;;14.57;;
68353;SDS011;55274;43.060;25.618;2023-02-13T13:27:31;38.35;;;15.80;;
68353;SDS011;55274;43.060;25.618;2023-02-13T13:32:30;35.88;;;16.85;;
68353;SDS011;55274;43.060;25.618;2023-02-13T13:34:59;32.97;;;13.90;;
68353;SDS011;55274;43.060;25.618;2023-02-13T13:45:46;50.65;;;16.23;;
68353;SDS011;55274;43.060;25.618;2023-02-13T13:50:40;51.22;;;15.35;;
68353;SDS011;55274;43.060;25.618;2023-02-13T13:53:15;30.52;;;13.38;;
68353;SDS011;55274;43.060;25.618;2023-02-13T13:58:43;108.90;;;20.73;;
68353;SDS011;55274;43.060;25.618;2023-02-13T14:03:41;38.88;;;14.35;;
68353;SDS011;55274;43.060;25.618;2023-02-13T14:06:11;39.88;;;14.90;;
68353;SDS011;55274;43.060;25.618;2023-02-13T14:11:27;28.50;;;12.85;;
68353;SDS011;55274;43.060;25.618;2023-02-13T14:13:51;31.55;;;14.88;;
68353;SDS011;55274;43.060;25.618;2023-02-13T14:19:21;39.13;;;15.30;;
68353;SDS011;55274;43.060;25.618;2023-02-13T14:21:55;31.65;;;14.48;;
68353;SDS011;55274;43.060;25.618;2023-02-13T14:24:52;33.00;;;13.93;;
68353;SDS011;55274;43.060;25.618;2023-02-13T14:27:27;36.47;;;15.48;;
68353;SDS011;55274;43.060;25.618;2023-02-13T14:29:55;32.10;;;14.50;;
68353;SDS011;55274;43.060;25.618;2023-02-13T14:32:28;31.83;;;13.88;;
68353;SDS011;55274;43.060;25.618;2023-02-13T14:35:30;29.85;;;13.65;;
68353;SDS011;55274;43.060;25.618;2023-02-13T14:37:57;51.20;;;15.40;;
68353;SDS011;55274;43.060;25.618;2023-02-13T14:42:53;33.58;;;15.13;;
68353;SDS011;55274;43.060;25.618;2023-02-13T14:45:23;42.40;;;15.18;;
68353;SDS011;55274;43.060;25.618;2023-02-13T14:47:54;34.80;;;15.07;;
68353;SDS011;55274;43.060;25.618;2023-02-13T14:50:23;40.70;;;14.93;;
68353;SDS011;55274;43.060;25.618;2023-02-13T14:53:32;30.23;;;13.70;;
68353;SDS011;55274;43.060;25.618;2023-02-13T14:56:13;38.35;;;14.38;;
68353;SDS011;55274;43.060;25.618;2023-02-13T15:01:36;42.90;;;14.10;;
68353;SDS011;55274;43.060;25.618;2023-02-13T15:04:10;31.48;;;12.57;;
68353;SDS011;55274;43.060;25.618;2023-02-13T15:06:41;31.50;;;12.95;;
68353;SDS011;55274;43.060;25.618;2023-02-13T15:12:31;35.35;;;12.25;;
68353;SDS011;55274;43.060;25.618;2023-02-13T15:14:59;41.35;;;13.50;;
68353;SDS011;55274;43.060;25.618;2023-02-13T15:17:32;37.97;;;13.65;;
68353;SDS011;55274;43.060;25.618;2023-02-13T15:20:22;31.13;;;12.63;;
68353;SDS011;55274;43.060;25.618;2023-02-13T15:22:51;32.83;;;13.40;;
68353;SDS011;55274;43.060;25.618;2023-02-13T15:25:21;44.42;;;14.02;;
68353;SDS011;55274;43.060;25.618;2023-02-13T15:27:51;42.08;;;12.32;;
68353;SDS011;55274;43.060;25.618;2023-02-13T15:30:26;34.63;;;13.25;;
68353;SDS011;55274;43.060;25.618;2023-02-13T15:32:54;29.25;;;12.90;;
68353;SDS011;55274;43.060;25.618;2023-02-13T15:35:28;32.90;;;12.50;;
68353;SDS011;55274;43.060;25.618;2023-02-13T15:37:59;45.83;;;13.82;;
68353;SDS011;55274;43.060;25.618;2023-02-13T15:40:40;41.40;;;13.50;;
68353;SDS011;55274;43.060;25.618;2023-02-13T15:43:13;43.40;;;13.93;;
68353;SDS011;55274;43.060;25.618;2023-02-13T15:46:03;39.97;;;13.82;;
68353;SDS011;55274;43.060;25.618;2023-02-13T15:48:32;39.00;;;13.63;;
68353;SDS011;55274;43.060;25.618;2023-02-13T15:51:00;41.28;;;13.27;;
68353;SDS011;55274;43.060;25.618;2023-02-13T15:53:27;45.13;;;13.63;;
68353;SDS011;55274;43.060;25.618;2023-02-13T15:56:01;41.60;;;14.68;;
68353;SDS011;55274;43.060;25.618;2023-02-13T15:58:30;47.72;;;13.40;;
68353;SDS011;55274;43.060;25.618;2023-02-13T16:01:07;69.75;;;16.90;;
68353;SDS011;55274;43.060;25.618;2023-02-13T16:03:34;90.85;;;16.48;;
68353;SDS011;55274;43.060;25.618;2023-02-13T16:06:02;67.75;;;14.82;;
68353;SDS011;55274;43.060;25.618;2023-02-13T16:08:36;58.53;;;14.63;;
68353;SDS011;55274;43.060;25.618;2023-02-13T16:16:19;52.13;;;14.73;;
68353;SDS011;55274;43.060;25.618;2023-02-13T16:18:45;65.30;;;14.50;;
68353;SDS011;55274;43.060;25.618;2023-02-13T16:21:11;39.40;;;13.93;;
68353;SDS011;55274;43.060;25.618;2023-02-13T16:23:37;60.28;;;14.15;;
68353;SDS011;55274;43.060;25.618;2023-02-13T16:26:04;84.75;;;16.02;;
68353;SDS011;55274;43.060;25.618;2023-02-13T16:28:36;66.53;;;15.90;;
68353;SDS011;55274;43.060;25.618;2023-02-13T16:31:03;64.85;;;15.10;;
68353;SDS011;55274;43.060;25.618;2023-02-13T16:33:30;62.92;;;14.77;;
68353;SDS011;55274;43.060;25.618;2023-02-13T16:35:57;66.95;;;17.58;;
68353;SDS011;55274;43.060;25.618;2023-02-13T16:40:58;58.15;;;15.10;;
68353;SDS011;55274;43.060;25.618;2023-02-13T16:46:15;65.55;;;14.73;;
68353;SDS011;55274;43.060;25.618;2023-02-13T17:02:09;80.03;;;16.45;;
68353;SDS011;55274;43.060;25.618;2023-02-13T17:04:47;51.53;;;14.85;;
68353;SDS011;55274;43.060;25.618;2023-02-13T17:07:17;68.22;;;15.55;;
68353;SDS011;55274;43.060;25.618;2023-02-13T17:09:50;66.15;;;14.48;;
68353;SDS011;55274;43.060;25.618;2023-02-13T17:12:17;53.83;;;14.25;;
68353;SDS011;55274;43.060;25.618;2023-02-13T17:14:44;113.38;;;17.27;;
68353;SDS011;55274;43.060;25.618;2023-02-13T17:17:20;61.42;;;16.17;;
68353;SDS011;55274;43.060;25.618;2023-02-13T17:19:47;51.80;;;14.88;;
68353;SDS011;55274;43.060;25.618;2023-02-13T17:22:26;54.72;;;13.73;;
68353;SDS011;55274;43.060;25.618;2023-02-13T17:24:56;44.63;;;14.02;;
68353;SDS011;55274;43.060;25.618;2023-02-13T17:27:22;43.47;;;14.60;;
68353;SDS011;55274;43.060;25.618;2023-02-13T17:29:48;48.00;;;15.82;;
68353;SDS011;55274;43.060;25.618;2023-02-13T17:32:17;46.65;;;17.55;;